WAT3465 ESGG-EFHK
Flight info
| Callsign | WAT3465 |
|---|---|
| Flight time | 1h 9m |
| Altitude | 37000 |
| Route | LABAN Y430 TINKA DCT TUSNI DCT RIKUM DCT RIRIP Y364 LAKUT |
| Aircraft | A320/M-SDE3FGHIRWY/LB1 |
Departure
| Time | 2026-04-23 18:20 |
|---|---|
| Airport | Göteborg Landvetter Airport (ESGG) |
Arrival
| Time | 2026-04-23 19:30 |
|---|---|
| Airport | Helsinki Vantaa Airport (EFHK) |
| Time | Latitude | Longitude | Altitude | Speed | Heading |
|---|---|---|---|---|---|
| 2026-04-23 17:58 | 57.66729 | 12.29269 | 516 ft | 0 kts | 116° |
| 2026-04-23 18:10 | 57.66730 | 12.29263 | 516 ft | 2 kts | 115° |
| 2026-04-23 18:10 | 57.66738 | 12.29231 | 516 ft | 3 kts | 110° |
| 2026-04-23 18:11 | 57.66744 | 12.29195 | 516 ft | 3 kts | 101° |
| 2026-04-23 18:11 | 57.66747 | 12.29158 | 516 ft | 3 kts | 84° |
| 2026-04-23 18:11 | 57.66743 | 12.29125 | 516 ft | 3 kts | 44° |
| 2026-04-23 18:11 | 57.66737 | 12.29116 | 516 ft | 0 kts | 26° |
| 2026-04-23 18:14 | 57.66749 | 12.29126 | 516 ft | 3 kts | 22° |
| 2026-04-23 18:15 | 57.66771 | 12.29110 | 516 ft | 5 kts | 316° |
| 2026-04-23 18:15 | 57.66795 | 12.29020 | 516 ft | 9 kts | 296° |
| 2026-04-23 18:15 | 57.66825 | 12.28906 | 516 ft | 9 kts | 297° |
| 2026-04-23 18:15 | 57.66877 | 12.28869 | 517 ft | 6 kts | 12° |
| 2026-04-23 18:16 | 57.66906 | 12.28893 | 518 ft | 6 kts | 25° |
| 2026-04-23 18:16 | 57.66942 | 12.28924 | 519 ft | 5 kts | 25° |
| 2026-04-23 18:16 | 57.66972 | 12.28951 | 519 ft | 5 kts | 26° |
| 2026-04-23 18:17 | 57.67096 | 12.29066 | 519 ft | 12 kts | 26° |
| 2026-04-23 18:17 | 57.67173 | 12.29135 | 517 ft | 15 kts | 26° |
| 2026-04-23 18:17 | 57.67246 | 12.29199 | 517 ft | 19 kts | 25° |
| 2026-04-23 18:17 | 57.67406 | 12.29349 | 517 ft | 19 kts | 27° |
| 2026-04-23 18:18 | 57.67482 | 12.29418 | 518 ft | 16 kts | 25° |
| 2026-04-23 18:18 | 57.67548 | 12.29466 | 517 ft | 8 kts | 4° |
| 2026-04-23 18:18 | 57.67592 | 12.29403 | 516 ft | 9 kts | 287° |
| 2026-04-23 18:18 | 57.67590 | 12.29313 | 516 ft | 6 kts | 264° |
| 2026-04-23 18:19 | 57.67583 | 12.29246 | 516 ft | 4 kts | 256° |
| 2026-04-23 18:19 | 57.67574 | 12.29192 | 516 ft | 6 kts | 245° |
| 2026-04-23 18:19 | 57.67542 | 12.29127 | 515 ft | 7 kts | 216° |
| 2026-04-23 18:19 | 57.67489 | 12.29078 | 513 ft | 13 kts | 205° |
| 2026-04-23 18:20 | 57.67224 | 12.28836 | 520 ft | 78 kts | 206° |
| 2026-04-23 18:20 | 57.66536 | 12.28210 | 520 ft | 139 kts | 206° |
| 2026-04-23 18:20 | 57.65543 | 12.27312 | 746 ft | 165 kts | 208° |
| 2026-04-23 18:20 | 57.64506 | 12.26369 | 1459 ft | 168 kts | 209° |
| 2026-04-23 18:21 | 57.63408 | 12.25371 | 1933 ft | 187 kts | 208° |
| 2026-04-23 18:21 | 57.62059 | 12.24868 | 2250 ft | 212 kts | 172° |
| 2026-04-23 18:21 | 57.60579 | 12.25686 | 2556 ft | 235 kts | 156° |
| 2026-04-23 18:21 | 57.59091 | 12.26942 | 3318 ft | 238 kts | 152° |
| 2026-04-23 18:22 | 57.57632 | 12.28419 | 4141 ft | 238 kts | 135° |
| 2026-04-23 18:22 | 57.56828 | 12.30974 | 4893 ft | 228 kts | 95° |
| 2026-04-23 18:22 | 57.56861 | 12.33967 | 5357 ft | 239 kts | 68° |
| 2026-04-23 18:22 | 57.57604 | 12.36841 | 5862 ft | 255 kts | 60° |
| 2026-04-23 18:23 | 57.58330 | 12.39919 | 6660 ft | 264 kts | 63° |
| 2026-04-23 18:23 | 57.59678 | 12.46383 | 8321 ft | 273 kts | 64° |
| 2026-04-23 18:24 | 57.61050 | 12.53187 | 9956 ft | 285 kts | 64° |
| 2026-04-23 18:24 | 57.61843 | 12.56596 | 10673 ft | 286 kts | 53° |
| 2026-04-23 18:24 | 57.63095 | 12.59533 | 11056 ft | 299 kts | 39° |
| 2026-04-23 18:25 | 57.66727 | 12.64304 | 11535 ft | 337 kts | 30° |
| 2026-04-23 18:25 | 57.68697 | 12.66772 | 12219 ft | 343 kts | 30° |
| 2026-04-23 18:25 | 57.70674 | 12.69295 | 12990 ft | 346 kts | 30° |
| 2026-04-23 18:25 | 57.72664 | 12.71864 | 13732 ft | 349 kts | 30° |
| 2026-04-23 18:26 | 57.74671 | 12.74466 | 14407 ft | 352 kts | 30° |
| 2026-04-23 18:26 | 57.76692 | 12.77085 | 15055 ft | 355 kts | 30° |
| 2026-04-23 18:26 | 57.78738 | 12.79727 | 15697 ft | 358 kts | 30° |
| 2026-04-23 18:26 | 57.80777 | 12.82346 | 16325 ft | 361 kts | 30° |
| 2026-04-23 18:27 | 57.82861 | 12.85019 | 16962 ft | 364 kts | 30° |
| 2026-04-23 18:27 | 57.84958 | 12.87713 | 17599 ft | 368 kts | 30° |
| 2026-04-23 18:27 | 57.87077 | 12.90443 | 18229 ft | 371 kts | 30° |
| 2026-04-23 18:27 | 57.89214 | 12.93204 | 18792 ft | 374 kts | 30° |
| 2026-04-23 18:28 | 57.91367 | 12.95994 | 19354 ft | 377 kts | 30° |
| 2026-04-23 18:28 | 57.93531 | 12.98804 | 19890 ft | 380 kts | 30° |
| 2026-04-23 18:28 | 57.95716 | 13.01638 | 20427 ft | 383 kts | 30° |
| 2026-04-23 18:28 | 57.97919 | 13.04497 | 20958 ft | 386 kts | 30° |
| 2026-04-23 18:29 | 58.00138 | 13.07379 | 21462 ft | 389 kts | 30° |
| 2026-04-23 18:29 | 58.02371 | 13.10292 | 21963 ft | 392 kts | 31° |
| 2026-04-23 18:29 | 58.04620 | 13.13231 | 22448 ft | 394 kts | 31° |
| 2026-04-23 18:29 | 58.06883 | 13.16196 | 22922 ft | 397 kts | 31° |
| 2026-04-23 18:30 | 58.09156 | 13.19179 | 23380 ft | 400 kts | 31° |
| 2026-04-23 18:30 | 58.11451 | 13.22187 | 23804 ft | 403 kts | 31° |
| 2026-04-23 18:30 | 58.13760 | 13.25219 | 24175 ft | 405 kts | 31° |
| 2026-04-23 18:30 | 58.15985 | 13.28416 | 24539 ft | 410 kts | 37° |
| 2026-04-23 18:31 | 58.17972 | 13.32345 | 24901 ft | 418 kts | 46° |
| 2026-04-23 18:31 | 58.19681 | 13.36852 | 25263 ft | 423 kts | 50° |
| 2026-04-23 18:31 | 58.21358 | 13.41448 | 25626 ft | 425 kts | 50° |
| 2026-04-23 18:31 | 58.23042 | 13.46068 | 25966 ft | 427 kts | 50° |
| 2026-04-23 18:32 | 58.24733 | 13.50701 | 26301 ft | 429 kts | 50° |
| 2026-04-23 18:32 | 58.26435 | 13.55371 | 26642 ft | 431 kts | 50° |
| 2026-04-23 18:32 | 58.28143 | 13.60067 | 26964 ft | 433 kts | 50° |
| 2026-04-23 18:32 | 58.29852 | 13.64778 | 27286 ft | 435 kts | 50° |
| 2026-04-23 18:33 | 58.31570 | 13.69530 | 27590 ft | 437 kts | 50° |
| 2026-04-23 18:33 | 58.33293 | 13.74308 | 27888 ft | 439 kts | 50° |
| 2026-04-23 18:33 | 58.35021 | 13.79109 | 28178 ft | 440 kts | 50° |
| 2026-04-23 18:33 | 58.36751 | 13.83923 | 28454 ft | 442 kts | 50° |
| 2026-04-23 18:34 | 58.38491 | 13.88770 | 28723 ft | 444 kts | 50° |
| 2026-04-23 18:34 | 58.40238 | 13.93637 | 28979 ft | 445 kts | 50° |
| 2026-04-23 18:34 | 58.41986 | 13.98523 | 29283 ft | 445 kts | 50° |
| 2026-04-23 18:34 | 58.43723 | 14.03394 | 29653 ft | 444 kts | 50° |
| 2026-04-23 18:35 | 58.45457 | 14.08270 | 30023 ft | 443 kts | 50° |
| 2026-04-23 18:35 | 58.47184 | 14.13141 | 30351 ft | 442 kts | 50° |
| 2026-04-23 18:35 | 58.48902 | 14.17994 | 30655 ft | 441 kts | 50° |
| 2026-04-23 18:35 | 58.50619 | 14.22855 | 30965 ft | 440 kts | 50° |
| 2026-04-23 18:36 | 58.52328 | 14.27714 | 31270 ft | 440 kts | 50° |
| 2026-04-23 18:36 | 58.54034 | 14.32566 | 31585 ft | 439 kts | 50° |
| 2026-04-23 18:36 | 58.55731 | 14.37398 | 31898 ft | 438 kts | 50° |
| 2026-04-23 18:36 | 58.57408 | 14.42170 | 32189 ft | 437 kts | 50° |
| 2026-04-23 18:37 | 58.59104 | 14.47000 | 32514 ft | 436 kts | 50° |
| 2026-04-23 18:37 | 58.60815 | 14.51892 | 32832 ft | 435 kts | 50° |
| 2026-04-23 18:37 | 58.62469 | 14.56645 | 33142 ft | 434 kts | 50° |
| 2026-04-23 18:37 | 58.64143 | 14.61471 | 33452 ft | 434 kts | 50° |
| 2026-04-23 18:38 | 58.65814 | 14.66291 | 33763 ft | 433 kts | 50° |
| 2026-04-23 18:38 | 58.67477 | 14.71096 | 34072 ft | 432 kts | 50° |
| 2026-04-23 18:38 | 58.69143 | 14.75905 | 34345 ft | 432 kts | 50° |
| 2026-04-23 18:38 | 58.70805 | 14.80712 | 34621 ft | 431 kts | 50° |
| 2026-04-23 18:39 | 58.72462 | 14.85524 | 34863 ft | 431 kts | 50° |
| 2026-04-23 18:39 | 58.74112 | 14.90328 | 35108 ft | 431 kts | 50° |
| 2026-04-23 18:39 | 58.75762 | 14.95143 | 35349 ft | 430 kts | 50° |
| 2026-04-23 18:39 | 58.77411 | 14.99959 | 35585 ft | 430 kts | 50° |
| 2026-04-23 18:40 | 58.79057 | 15.04776 | 35819 ft | 430 kts | 50° |
| 2026-04-23 18:40 | 58.80695 | 15.09586 | 36038 ft | 430 kts | 50° |
| 2026-04-23 18:40 | 58.82333 | 15.14412 | 36252 ft | 430 kts | 50° |
| 2026-04-23 18:40 | 58.83969 | 15.19241 | 36465 ft | 429 kts | 50° |
| 2026-04-23 18:41 | 58.85603 | 15.24070 | 36674 ft | 429 kts | 50° |
| 2026-04-23 18:41 | 58.87232 | 15.28888 | 36869 ft | 429 kts | 50° |
| 2026-04-23 18:41 | 58.88863 | 15.33721 | 37033 ft | 429 kts | 50° |
| 2026-04-23 18:42 | 58.92136 | 15.43435 | 37057 ft | 432 kts | 50° |
| 2026-04-23 18:42 | 58.95411 | 15.53200 | 37058 ft | 432 kts | 50° |
| 2026-04-23 18:43 | 58.98684 | 15.62987 | 37050 ft | 432 kts | 50° |
| 2026-04-23 18:43 | 59.01938 | 15.72794 | 37049 ft | 432 kts | 50° |
| 2026-04-23 18:44 | 59.05163 | 15.82573 | 37049 ft | 433 kts | 50° |
| 2026-04-23 18:44 | 59.08403 | 15.92429 | 37054 ft | 433 kts | 50° |
| 2026-04-23 18:45 | 59.11642 | 16.02285 | 37056 ft | 432 kts | 50° |
| 2026-04-23 18:45 | 59.14874 | 16.12170 | 37055 ft | 432 kts | 50° |
| 2026-04-23 18:46 | 59.18083 | 16.22075 | 37050 ft | 432 kts | 50° |
| 2026-04-23 18:46 | 59.21160 | 16.32189 | 37041 ft | 439 kts | 57° |
| 2026-04-23 18:47 | 59.23755 | 16.42986 | 37039 ft | 439 kts | 57° |
| 2026-04-23 18:47 | 59.26331 | 16.53794 | 37030 ft | 439 kts | 57° |
| 2026-04-23 18:48 | 59.28901 | 16.64610 | 37028 ft | 438 kts | 57° |
| 2026-04-23 18:48 | 59.31460 | 16.75416 | 37022 ft | 437 kts | 57° |
| 2026-04-23 18:49 | 59.34029 | 16.86195 | 37024 ft | 435 kts | 56° |
| 2026-04-23 18:49 | 59.36767 | 16.96717 | 37021 ft | 432 kts | 54° |
| 2026-04-23 18:50 | 59.39092 | 17.05386 | 37017 ft | 432 kts | 54° |
| 2026-04-23 18:50 | 59.42060 | 17.17854 | 37021 ft | 436 kts | 59° |
| 2026-04-23 18:51 | 59.44311 | 17.28936 | 37015 ft | 437 kts | 60° |
| 2026-04-23 18:51 | 59.46452 | 17.39774 | 37010 ft | 436 kts | 60° |
| 2026-04-23 18:52 | 59.48670 | 17.50861 | 37009 ft | 435 kts | 60° |
| 2026-04-23 18:52 | 59.50899 | 17.61929 | 36992 ft | 435 kts | 60° |
| 2026-04-23 18:53 | 59.53122 | 17.73013 | 36989 ft | 435 kts | 60° |
| 2026-04-23 18:53 | 59.55331 | 17.84101 | 36981 ft | 434 kts | 60° |
| 2026-04-23 18:54 | 59.57527 | 17.95179 | 36981 ft | 434 kts | 60° |
| 2026-04-23 18:54 | 59.59704 | 18.06285 | 36980 ft | 434 kts | 60° |
| 2026-04-23 18:55 | 59.61851 | 18.17313 | 36983 ft | 433 kts | 60° |
| 2026-04-23 18:55 | 59.64015 | 18.28420 | 36990 ft | 433 kts | 60° |
| 2026-04-23 18:56 | 59.65817 | 18.37721 | 37001 ft | 432 kts | 60° |
| 2026-04-23 18:56 | 59.68302 | 18.50643 | 36997 ft | 432 kts | 60° |
| 2026-04-23 18:57 | 59.70426 | 18.61784 | 37011 ft | 432 kts | 60° |
| 2026-04-23 18:57 | 59.72542 | 18.72941 | 37024 ft | 432 kts | 60° |
| 2026-04-23 18:58 | 59.74652 | 18.84089 | 37024 ft | 432 kts | 60° |
| 2026-04-23 18:58 | 59.76749 | 18.95247 | 37025 ft | 432 kts | 60° |
| 2026-04-23 18:59 | 59.78845 | 19.06424 | 37022 ft | 432 kts | 60° |
| 2026-04-23 18:59 | 59.80922 | 19.17616 | 37019 ft | 432 kts | 60° |
| 2026-04-23 19:00 | 59.82976 | 19.28770 | 37014 ft | 433 kts | 60° |
| 2026-04-23 19:00 | 59.85045 | 19.40084 | 37016 ft | 433 kts | 60° |
| 2026-04-23 19:01 | 59.87082 | 19.51272 | 36999 ft | 433 kts | 60° |
| 2026-04-23 19:01 | 59.89126 | 19.62532 | 36993 ft | 433 kts | 60° |
| 2026-04-23 19:02 | 59.90832 | 19.71980 | 36998 ft | 433 kts | 61° |
| 2026-04-23 19:02 | 59.93182 | 19.85122 | 36985 ft | 433 kts | 61° |
| 2026-04-23 19:03 | 59.95196 | 19.96448 | 36983 ft | 433 kts | 61° |
| 2026-04-23 19:03 | 59.97198 | 20.07783 | 36985 ft | 433 kts | 61° |
| 2026-04-23 19:04 | 59.99200 | 20.19126 | 36983 ft | 433 kts | 61° |
| 2026-04-23 19:04 | 60.01197 | 20.30491 | 36984 ft | 433 kts | 61° |
| 2026-04-23 19:05 | 60.03175 | 20.41879 | 36988 ft | 433 kts | 61° |
| 2026-04-23 19:05 | 60.05148 | 20.53253 | 36982 ft | 433 kts | 61° |
| 2026-04-23 19:06 | 60.07105 | 20.64646 | 36980 ft | 433 kts | 62° |
| 2026-04-23 19:06 | 60.09048 | 20.76073 | 36978 ft | 433 kts | 62° |
| 2026-04-23 19:07 | 60.10981 | 20.87523 | 36973 ft | 434 kts | 62° |
| 2026-04-23 19:07 | 60.12897 | 20.98901 | 36972 ft | 434 kts | 62° |
| 2026-04-23 19:08 | 60.14826 | 21.10384 | 36976 ft | 434 kts | 62° |
| 2026-04-23 19:08 | 60.16741 | 21.21883 | 36972 ft | 435 kts | 62° |
| 2026-04-23 19:09 | 60.18646 | 21.33422 | 36977 ft | 435 kts | 62° |
| 2026-04-23 19:09 | 60.20461 | 21.45048 | 36972 ft | 442 kts | 68° |
| 2026-04-23 19:10 | 60.21741 | 21.57162 | 36975 ft | 443 kts | 69° |
| 2026-04-23 19:10 | 60.23009 | 21.69305 | 36975 ft | 443 kts | 69° |
| 2026-04-23 19:11 | 60.24269 | 21.81439 | 36968 ft | 443 kts | 69° |
| 2026-04-23 19:11 | 60.25313 | 21.91539 | 36957 ft | 443 kts | 69° |
| 2026-04-23 19:12 | 60.26546 | 22.03684 | 36796 ft | 442 kts | 69° |
| 2026-04-23 19:12 | 60.27156 | 22.09752 | 36537 ft | 441 kts | 69° |
| 2026-04-23 19:12 | 60.27764 | 22.15809 | 36279 ft | 441 kts | 69° |
| 2026-04-23 19:12 | 60.28371 | 22.21862 | 36029 ft | 440 kts | 69° |
| 2026-04-23 19:13 | 60.28977 | 22.27910 | 35779 ft | 440 kts | 68° |
| 2026-04-23 19:13 | 60.29580 | 22.33942 | 35523 ft | 439 kts | 68° |
| 2026-04-23 19:13 | 60.30181 | 22.39998 | 34695 ft | 442 kts | 68° |
| 2026-04-23 19:13 | 60.30783 | 22.46096 | 33843 ft | 444 kts | 68° |
| 2026-04-23 19:14 | 60.31379 | 22.52205 | 32907 ft | 444 kts | 68° |
| 2026-04-23 19:14 | 60.31970 | 22.58307 | 31949 ft | 444 kts | 67° |
| 2026-04-23 19:14 | 60.32563 | 22.64446 | 30939 ft | 447 kts | 67° |
| 2026-04-23 19:14 | 60.33156 | 22.70612 | 29912 ft | 449 kts | 67° |
| 2026-04-23 19:15 | 60.33744 | 22.76728 | 28675 ft | 452 kts | 68° |
| 2026-04-23 19:15 | 60.34340 | 22.82969 | 27528 ft | 453 kts | 68° |
| 2026-04-23 19:15 | 60.34929 | 22.89206 | 26702 ft | 449 kts | 68° |
| 2026-04-23 19:15 | 60.35496 | 22.95343 | 25940 ft | 443 kts | 68° |
| 2026-04-23 19:16 | 60.35813 | 23.01616 | 24836 ft | 462 kts | 81° |
| 2026-04-23 19:16 | 60.35408 | 23.08159 | 23669 ft | 469 kts | 89° |
| 2026-04-23 19:16 | 60.34856 | 23.14586 | 22359 ft | 460 kts | 90° |
| 2026-04-23 19:17 | 60.33711 | 23.27075 | 19897 ft | 445 kts | 91° |
| 2026-04-23 19:17 | 60.33148 | 23.33171 | 18762 ft | 438 kts | 92° |
| 2026-04-23 19:17 | 60.32599 | 23.39161 | 17601 ft | 432 kts | 92° |
| 2026-04-23 19:17 | 60.32065 | 23.45077 | 16399 ft | 425 kts | 92° |
| 2026-04-23 19:18 | 60.31544 | 23.50906 | 15263 ft | 419 kts | 93° |
| 2026-04-23 19:18 | 60.31035 | 23.56642 | 14181 ft | 412 kts | 93° |
| 2026-04-23 19:18 | 60.30534 | 23.62263 | 13075 ft | 404 kts | 94° |
| 2026-04-23 19:18 | 60.30041 | 23.67722 | 12524 ft | 383 kts | 94° |
| 2026-04-23 19:19 | 60.29116 | 23.77646 | 11121 ft | 358 kts | 94° |
| 2026-04-23 19:19 | 60.28677 | 23.82419 | 10898 ft | 333 kts | 94° |
| 2026-04-23 19:20 | 60.27871 | 23.91028 | 10266 ft | 301 kts | 94° |
| 2026-04-23 19:20 | 60.27490 | 23.95151 | 9680 ft | 296 kts | 94° |
| 2026-04-23 19:20 | 60.27118 | 23.99201 | 9032 ft | 293 kts | 94° |
| 2026-04-23 19:20 | 60.26747 | 24.03205 | 8376 ft | 289 kts | 95° |
| 2026-04-23 19:21 | 60.26378 | 24.07157 | 7733 ft | 285 kts | 95° |
| 2026-04-23 19:21 | 60.25647 | 24.14905 | 6471 ft | 278 kts | 96° |
| 2026-04-23 19:21 | 60.25281 | 24.18728 | 5937 ft | 278 kts | 97° |
| 2026-04-23 19:22 | 60.24918 | 24.22483 | 5753 ft | 267 kts | 97° |
| 2026-04-23 19:22 | 60.24568 | 24.26070 | 5613 ft | 255 kts | 97° |
| 2026-04-23 19:22 | 60.23912 | 24.32832 | 5116 ft | 242 kts | 97° |
| 2026-04-23 19:23 | 60.23594 | 24.36152 | 4768 ft | 241 kts | 97° |
| 2026-04-23 19:23 | 60.23288 | 24.39458 | 4370 ft | 241 kts | 97° |
| 2026-04-23 19:23 | 60.22969 | 24.42767 | 4006 ft | 241 kts | 98° |
| 2026-04-23 19:24 | 60.22301 | 24.49420 | 3205 ft | 251 kts | 98° |
| 2026-04-23 19:24 | 60.21939 | 24.52966 | 2827 ft | 265 kts | 99° |
| 2026-04-23 19:24 | 60.21228 | 24.59935 | 2504 ft | 243 kts | 98° |
| 2026-04-23 19:25 | 60.21042 | 24.66497 | 2336 ft | 232 kts | 71° |
| 2026-04-23 19:25 | 60.22640 | 24.71512 | 2284 ft | 200 kts | 44° |
| 2026-04-23 19:26 | 60.24398 | 24.75321 | 2233 ft | 171 kts | 43° |
| 2026-04-23 19:26 | 60.25200 | 24.77057 | 1954 ft | 166 kts | 44° |
| 2026-04-23 19:27 | 60.26642 | 24.80227 | 1562 ft | 138 kts | 44° |
| 2026-04-23 19:27 | 60.28569 | 24.84423 | 965 ft | 136 kts | 45° |
| 2026-04-23 19:28 | 60.29865 | 24.87258 | 593 ft | 138 kts | 46° |
| 2026-04-23 19:28 | 60.31143 | 24.90062 | 252 ft | 136 kts | 46° |
| 2026-04-23 19:29 | 60.31768 | 24.91431 | 171 ft | 120 kts | 46° |
| 2026-04-23 19:29 | 60.32604 | 24.93265 | 171 ft | 69 kts | 47° |
| 2026-04-23 19:30 | 60.33034 | 24.94214 | 172 ft | 24 kts | 46° |
| 2026-04-23 19:30 | 60.33111 | 24.94394 | 172 ft | 12 kts | 61° |
| 2026-04-23 19:30 | 60.33073 | 24.94582 | 168 ft | 6 kts | 135° |
| 2026-04-23 19:31 | 60.33062 | 24.94606 | 168 ft | 0 kts | 135° |
| 2026-04-23 19:31 | 60.33030 | 24.94665 | 167 ft | 2 kts | 137° |
| 2026-04-23 19:32 | 60.33013 | 24.94697 | 167 ft | 8 kts | 137° |
| 2026-04-23 19:32 | 60.32965 | 24.94797 | 167 ft | 9 kts | 116° |
| 2026-04-23 19:32 | 60.32988 | 24.94903 | 167 ft | 10 kts | 47° |
| 2026-04-23 19:32 | 60.33041 | 24.95022 | 167 ft | 11 kts | 47° |
| 2026-04-23 19:33 | 60.33099 | 24.95148 | 167 ft | 15 kts | 47° |
| 2026-04-23 19:33 | 60.33178 | 24.95320 | 167 ft | 11 kts | 47° |
| 2026-04-23 19:33 | 60.33166 | 24.95597 | 167 ft | 14 kts | 137° |
| 2026-04-23 19:34 | 60.33098 | 24.95723 | 167 ft | 13 kts | 136° |
| 2026-04-23 19:34 | 60.33029 | 24.95820 | 167 ft | 13 kts | 150° |
| 2026-04-23 19:34 | 60.32809 | 24.96076 | 166 ft | 20 kts | 150° |
| 2026-04-23 19:35 | 60.32704 | 24.96199 | 166 ft | 11 kts | 149° |
| 2026-04-23 19:35 | 60.32644 | 24.96270 | 166 ft | 10 kts | 150° |
| 2026-04-23 19:35 | 60.32589 | 24.96333 | 166 ft | 9 kts | 149° |
| 2026-04-23 19:35 | 60.32545 | 24.96386 | 166 ft | 0 kts | 149° |
| 2026-04-23 19:36 | 60.32541 | 24.96391 | 166 ft | 4 kts | 149° |
| 2026-04-23 19:36 | 60.32481 | 24.96462 | 165 ft | 14 kts | 149° |
| 2026-04-23 19:36 | 60.32412 | 24.96541 | 166 ft | 9 kts | 151° |
| 2026-04-23 19:37 | 60.32360 | 24.96598 | 166 ft | 8 kts | 150° |
| 2026-04-23 19:37 | 60.32314 | 24.96653 | 166 ft | 7 kts | 149° |
| 2026-04-23 19:37 | 60.32284 | 24.96689 | 166 ft | 3 kts | 149° |
| 2026-04-23 19:37 | 60.32260 | 24.96718 | 166 ft | 9 kts | 149° |
| 2026-04-23 19:38 | 60.32206 | 24.96781 | 166 ft | 4 kts | 150° |
| 2026-04-23 19:38 | 60.32155 | 24.96838 | 166 ft | 13 kts | 151° |
| 2026-04-23 19:38 | 60.32073 | 24.96930 | 166 ft | 14 kts | 150° |
| 2026-04-23 19:38 | 60.31989 | 24.97024 | 166 ft | 8 kts | 153° |
| 2026-04-23 19:39 | 60.31938 | 24.97076 | 166 ft | 10 kts | 153° |
| 2026-04-23 19:39 | 60.31862 | 24.97155 | 166 ft | 14 kts | 153° |
| 2026-04-23 19:39 | 60.31797 | 24.97221 | 166 ft | 6 kts | 153° |
| 2026-04-23 19:39 | 60.31755 | 24.97264 | 166 ft | 7 kts | 153° |
| 2026-04-23 19:40 | 60.31708 | 24.97304 | 166 ft | 7 kts | 171° |
| 2026-04-23 19:40 | 60.31685 | 24.97249 | 166 ft | 2 kts | 248° |
| 2026-04-23 19:40 | 60.31678 | 24.97220 | 166 ft | 2 kts | 243° |
| 2026-04-23 19:40 | 60.31673 | 24.97198 | 166 ft | 1 kts | 243° |
| 2026-04-23 19:41 | 60.31672 | 24.97197 | 166 ft | 0 kts | 243° |